Chur/Vaduz, Switzerland
Current Conditions -  °F | °C
As of 9:50 AM on Monday 20 Oct 2014 (Local Time) from LSZS Reporting Station
Clear Clear  
Wind Chill: 39°   Ceiling: Unl
Heat Index: 39°   Visibility: 6mi
Dew Point: 39°   Wind: 1mph
Humidity: 100%   Direction: NA
Pressure: 30.36"   Gusts: NA
Location:  46.85°N, 9.53°E
Report Text: LSZS 200750Z VRB01KT CAVOK 04/04 Q1028
Loading
Personal Weather Stations






























Interactive Weather Map
Tropical Storm Tracking
New forecast layout! Learn more

10-Day Weather Forecast

Advertisements
Track Severe Weather on mobile